Disclaimer

    

CYCD

LWIS CYCD 081300Z AUTO 00000KT M01/M02 A3037=

LWIS CYCD 081200Z AUTO 26004KT M00/M01 A3034=

LWIS CYCD 081100Z AUTO 25003KT 01/M01 A3032=

TAF CYCD 072344Z 0800/0805 22004KT P6SM SCT040 TEMPO 0800/0805 P6SM-SHRA BKN040RMK NXT FCST BY 081600Z=

CYVR

METAR CYVR 081300Z 11004KT 20SM SKC 01/01 A3036 RMK SLP284=

SPECI CYVR 081238Z 11004KT 20SM SKC 02/02 A3035 RMK SLP281=

METAR CYVR 081200Z 23006KT 20SM FEW050 04/03 A3034 RMK SC1 SC TR SLP276=

METAR CYVR 081100Z 24007KT 20SM FEW051 04/03 A3032 RMK SC1 SC TR SLP269=

TAF CYVR 081140Z 0812/0918 24005KT P6SM SCT050BECMG 0812/0814 08008KTFM090000 12010KT P6SM FEW050 SCT070 BKN120FM090600 07010KT P6SM SCT050 BKN070FM090900 07010KT P6SM -SHRA BKN050 OVC070RMK NXT FCST BY 081500Z

CYXX

METAR CYXX 081300Z 18007KT 10SM FEW060 03/01 A3036 RMK SF2 SLP286=

METAR CYXX 081200Z 18007KT 10SM SCT061 BKN068 04/01 A3035 RMK SF4AC2 SLP281=

METAR CYXX 081100Z 18006KT 9SM BKN066 04/02 A3032 RMK AC7 SLP270=

TAF CYXX 081140Z 0812/0912 18008KT P6SM SCT050 BKN070FM082300 20005KT P6SM FEW050 SCT070 SCT150BECMG 0902/0904 04005KTFM090900 04008KT P6SM OVC080 TEMPO 0909/0912 P6SM -SHRA OVC060RMK NXT FCST BY 081800Z=

Supplemental information

Lower mainland ATIS: 1-877-517-2847

CZBB (Boundary Bay) current winds

Upper winds (Vancouver)

Data fromValid at300060009000
08000008060028213015-072826-15
08000008120029082913-082918-14
08000009000014082007-072414-10

NOTAMs

On October 10, 2019, NAV CANADA changed to the ICAO NOTAM format. They are now available only through Collaborative Flight Planning Services (CFPS) (plan.navcanada.ca). I'm working to update this site to pull in the relevant NOTAMs in the new format.